sensor_id;sensor_type;location;lat;lon;timestamp;P1;durP1;ratioP1;P2;durP2;ratioP2
19754;SDS011;10036;47.812;9.274;2023-02-12T00:01:39;53.73;;;27.40;;
19754;SDS011;10036;47.812;9.274;2023-02-12T00:04:06;58.90;;;28.60;;
19754;SDS011;10036;47.812;9.274;2023-02-12T00:06:33;54.70;;;28.27;;
19754;SDS011;10036;47.812;9.274;2023-02-12T00:09:00;57.63;;;29.30;;
19754;SDS011;10036;47.812;9.274;2023-02-12T00:11:28;57.83;;;29.00;;
19754;SDS011;10036;47.812;9.274;2023-02-12T00:13:55;54.00;;;28.83;;
19754;SDS011;10036;47.812;9.274;2023-02-12T00:16:24;53.63;;;27.37;;
19754;SDS011;10036;47.812;9.274;2023-02-12T00:18:53;53.70;;;27.13;;
19754;SDS011;10036;47.812;9.274;2023-02-12T00:21:21;54.20;;;28.30;;
19754;SDS011;10036;47.812;9.274;2023-02-12T00:23:49;56.67;;;28.93;;
19754;SDS011;10036;47.812;9.274;2023-02-12T00:26:16;58.33;;;28.43;;
19754;SDS011;10036;47.812;9.274;2023-02-12T00:28:46;56.73;;;27.77;;
19754;SDS011;10036;47.812;9.274;2023-02-12T00:31:13;55.80;;;28.27;;
19754;SDS011;10036;47.812;9.274;2023-02-12T00:33:41;56.13;;;28.43;;
19754;SDS011;10036;47.812;9.274;2023-02-12T00:36:09;55.70;;;29.37;;
19754;SDS011;10036;47.812;9.274;2023-02-12T00:38:40;56.47;;;28.03;;
19754;SDS011;10036;47.812;9.274;2023-02-12T00:41:06;53.97;;;28.27;;
19754;SDS011;10036;47.812;9.274;2023-02-12T00:43:34;54.93;;;29.30;;
19754;SDS011;10036;47.812;9.274;2023-02-12T00:46:02;67.43;;;31.20;;
19754;SDS011;10036;47.812;9.274;2023-02-12T00:48:30;58.47;;;28.83;;
19754;SDS011;10036;47.812;9.274;2023-02-12T00:50:57;61.63;;;30.53;;
19754;SDS011;10036;47.812;9.274;2023-02-12T00:53:24;61.00;;;29.73;;
19754;SDS011;10036;47.812;9.274;2023-02-12T00:55:51;66.90;;;30.43;;
19754;SDS011;10036;47.812;9.274;2023-02-12T00:58:18;64.00;;;30.00;;
19754;SDS011;10036;47.812;9.274;2023-02-12T01:00:45;65.43;;;29.67;;
19754;SDS011;10036;47.812;9.274;2023-02-12T01:03:13;64.60;;;30.07;;
19754;SDS011;10036;47.812;9.274;2023-02-12T01:05:41;58.53;;;29.88;;
19754;SDS011;10036;47.812;9.274;2023-02-12T01:08:09;58.80;;;29.37;;
19754;SDS011;10036;47.812;9.274;2023-02-12T01:10:37;61.37;;;28.87;;
19754;SDS011;10036;47.812;9.274;2023-02-12T01:13:03;60.40;;;30.33;;
19754;SDS011;10036;47.812;9.274;2023-02-12T01:15:30;58.47;;;29.80;;
19754;SDS011;10036;47.812;9.274;2023-02-12T01:17:57;58.73;;;29.17;;
19754;SDS011;10036;47.812;9.274;2023-02-12T01:20:25;58.90;;;28.33;;
19754;SDS011;10036;47.812;9.274;2023-02-12T01:22:52;56.60;;;29.50;;
19754;SDS011;10036;47.812;9.274;2023-02-12T01:25:19;60.93;;;28.23;;
19754;SDS011;10036;47.812;9.274;2023-02-12T01:27:46;62.97;;;29.87;;
19754;SDS011;10036;47.812;9.274;2023-02-12T01:30:13;61.63;;;30.17;;
19754;SDS011;10036;47.812;9.274;2023-02-12T01:32:41;59.83;;;30.73;;
19754;SDS011;10036;47.812;9.274;2023-02-12T01:35:08;57.87;;;29.27;;
19754;SDS011;10036;47.812;9.274;2023-02-12T01:37:37;53.40;;;28.13;;
19754;SDS011;10036;47.812;9.274;2023-02-12T01:40:04;56.37;;;28.27;;
19754;SDS011;10036;47.812;9.274;2023-02-12T01:42:32;59.40;;;29.13;;
19754;SDS011;10036;47.812;9.274;2023-02-12T01:45:31;60.17;;;27.40;;
19754;SDS011;10036;47.812;9.274;2023-02-12T01:48:09;52.03;;;26.63;;
19754;SDS011;10036;47.812;9.274;2023-02-12T01:50:37;51.67;;;25.98;;
19754;SDS011;10036;47.812;9.274;2023-02-12T01:53:05;55.10;;;27.57;;
19754;SDS011;10036;47.812;9.274;2023-02-12T01:55:33;53.57;;;27.80;;
19754;SDS011;10036;47.812;9.274;2023-02-12T01:58:00;53.33;;;26.70;;
19754;SDS011;10036;47.812;9.274;2023-02-12T02:00:29;50.67;;;27.13;;
19754;SDS011;10036;47.812;9.274;2023-02-12T02:02:57;51.57;;;27.23;;
19754;SDS011;10036;47.812;9.274;2023-02-12T02:05:28;55.63;;;28.37;;
19754;SDS011;10036;47.812;9.274;2023-02-12T02:07:58;55.77;;;27.20;;
19754;SDS011;10036;47.812;9.274;2023-02-12T02:10:27;51.53;;;27.47;;
19754;SDS011;10036;47.812;9.274;2023-02-12T02:12:54;53.03;;;27.73;;
19754;SDS011;10036;47.812;9.274;2023-02-12T02:15:39;52.37;;;27.33;;
19754;SDS011;10036;47.812;9.274;2023-02-12T02:18:10;52.50;;;27.33;;
19754;SDS011;10036;47.812;9.274;2023-02-12T02:23:44;48.73;;;26.60;;
19754;SDS011;10036;47.812;9.274;2023-02-12T02:26:29;53.97;;;28.43;;
19754;SDS011;10036;47.812;9.274;2023-02-12T02:29:10;56.57;;;28.33;;
19754;SDS011;10036;47.812;9.274;2023-02-12T02:31:52;60.37;;;28.27;;
19754;SDS011;10036;47.812;9.274;2023-02-12T02:34:28;60.47;;;29.03;;
19754;SDS011;10036;47.812;9.274;2023-02-12T02:37:03;57.13;;;28.83;;
19754;SDS011;10036;47.812;9.274;2023-02-12T02:39:40;52.43;;;27.43;;
19754;SDS011;10036;47.812;9.274;2023-02-12T02:42:13;54.67;;;28.23;;
19754;SDS011;10036;47.812;9.274;2023-02-12T02:44:46;56.83;;;28.93;;
19754;SDS011;10036;47.812;9.274;2023-02-12T02:47:18;59.97;;;28.77;;
19754;SDS011;10036;47.812;9.274;2023-02-12T02:49:49;58.37;;;28.03;;
19754;SDS011;10036;47.812;9.274;2023-02-12T02:52:20;55.53;;;28.67;;
19754;SDS011;10036;47.812;9.274;2023-02-12T02:54:51;60.23;;;28.93;;
19754;SDS011;10036;47.812;9.274;2023-02-12T02:57:23;58.97;;;28.20;;
19754;SDS011;10036;47.812;9.274;2023-02-12T02:59:55;56.33;;;28.60;;
19754;SDS011;10036;47.812;9.274;2023-02-12T03:02:31;51.50;;;27.77;;
19754;SDS011;10036;47.812;9.274;2023-02-12T03:05:01;55.97;;;27.97;;
19754;SDS011;10036;47.812;9.274;2023-02-12T03:07:31;54.57;;;28.37;;
19754;SDS011;10036;47.812;9.274;2023-02-12T03:10:02;60.10;;;29.27;;
19754;SDS011;10036;47.812;9.274;2023-02-12T03:12:34;56.43;;;29.10;;
19754;SDS011;10036;47.812;9.274;2023-02-12T03:15:07;61.20;;;30.00;;
19754;SDS011;10036;47.812;9.274;2023-02-12T03:17:38;60.37;;;29.13;;
19754;SDS011;10036;47.812;9.274;2023-02-12T03:20:09;55.63;;;27.83;;
19754;SDS011;10036;47.812;9.274;2023-02-12T03:22:42;54.80;;;28.13;;
19754;SDS011;10036;47.812;9.274;2023-02-12T03:25:15;58.67;;;27.40;;
19754;SDS011;10036;47.812;9.274;2023-02-12T03:27:46;50.67;;;25.93;;
19754;SDS011;10036;47.812;9.274;2023-02-12T03:30:17;54.40;;;27.37;;
19754;SDS011;10036;47.812;9.274;2023-02-12T03:32:49;53.37;;;28.20;;
19754;SDS011;10036;47.812;9.274;2023-02-12T03:35:21;55.93;;;27.87;;
19754;SDS011;10036;47.812;9.274;2023-02-12T03:37:53;59.60;;;27.13;;
19754;SDS011;10036;47.812;9.274;2023-02-12T03:40:26;54.40;;;27.73;;
19754;SDS011;10036;47.812;9.274;2023-02-12T03:42:57;54.87;;;28.17;;
19754;SDS011;10036;47.812;9.274;2023-02-12T03:45:29;55.97;;;28.10;;
19754;SDS011;10036;47.812;9.274;2023-02-12T03:48:07;55.00;;;27.93;;
19754;SDS011;10036;47.812;9.274;2023-02-12T03:50:40;57.97;;;28.00;;
19754;SDS011;10036;47.812;9.274;2023-02-12T03:53:11;55.00;;;27.27;;
19754;SDS011;10036;47.812;9.274;2023-02-12T03:55:39;53.83;;;28.37;;
19754;SDS011;10036;47.812;9.274;2023-02-12T03:58:11;54.00;;;27.77;;
19754;SDS011;10036;47.812;9.274;2023-02-12T04:00:43;57.10;;;27.53;;
19754;SDS011;10036;47.812;9.274;2023-02-12T04:03:12;51.43;;;26.50;;
19754;SDS011;10036;47.812;9.274;2023-02-12T04:05:39;55.83;;;28.07;;
19754;SDS011;10036;47.812;9.274;2023-02-12T04:08:06;52.93;;;26.67;;
19754;SDS011;10036;47.812;9.274;2023-02-12T04:10:37;53.20;;;27.57;;
19754;SDS011;10036;47.812;9.274;2023-02-12T04:13:15;53.00;;;27.43;;
19754;SDS011;10036;47.812;9.274;2023-02-12T04:15:50;53.43;;;27.00;;
19754;SDS011;10036;47.812;9.274;2023-02-12T04:18:30;55.60;;;26.63;;
19754;SDS011;10036;47.812;9.274;2023-02-12T04:21:05;55.33;;;26.33;;
19754;SDS011;10036;47.812;9.274;2023-02-12T04:23:45;51.53;;;26.20;;
19754;SDS011;10036;47.812;9.274;2023-02-12T04:26:17;58.13;;;27.40;;
19754;SDS011;10036;47.812;9.274;2023-02-12T04:28:55;50.73;;;26.00;;
19754;SDS011;10036;47.812;9.274;2023-02-12T04:31:30;52.67;;;26.80;;
19754;SDS011;10036;47.812;9.274;2023-02-12T04:34:08;54.93;;;27.27;;
19754;SDS011;10036;47.812;9.274;2023-02-12T04:36:42;58.67;;;27.33;;
19754;SDS011;10036;47.812;9.274;2023-02-12T04:39:15;56.20;;;26.77;;
19754;SDS011;10036;47.812;9.274;2023-02-12T04:41:46;58.07;;;27.50;;
19754;SDS011;10036;47.812;9.274;2023-02-12T04:44:14;57.37;;;27.47;;
19754;SDS011;10036;47.812;9.274;2023-02-12T04:46:42;57.17;;;28.50;;
19754;SDS011;10036;47.812;9.274;2023-02-12T04:49:12;55.83;;;27.30;;
19754;SDS011;10036;47.812;9.274;2023-02-12T04:51:41;58.43;;;29.03;;
19754;SDS011;10036;47.812;9.274;2023-02-12T04:54:09;58.00;;;29.30;;
19754;SDS011;10036;47.812;9.274;2023-02-12T04:56:36;52.93;;;27.43;;
19754;SDS011;10036;47.812;9.274;2023-02-12T04:59:03;59.07;;;29.20;;
19754;SDS011;10036;47.812;9.274;2023-02-12T05:01:29;52.03;;;26.70;;
19754;SDS011;10036;47.812;9.274;2023-02-12T05:03:58;56.17;;;28.67;;
19754;SDS011;10036;47.812;9.274;2023-02-12T05:06:26;56.07;;;27.90;;
19754;SDS011;10036;47.812;9.274;2023-02-12T05:08:54;58.20;;;29.03;;
19754;SDS011;10036;47.812;9.274;2023-02-12T05:11:21;55.30;;;28.77;;
19754;SDS011;10036;47.812;9.274;2023-02-12T05:13:49;55.00;;;27.13;;
19754;SDS011;10036;47.812;9.274;2023-02-12T05:16:17;52.20;;;25.77;;
19754;SDS011;10036;47.812;9.274;2023-02-12T05:18:44;50.27;;;25.43;;
19754;SDS011;10036;47.812;9.274;2023-02-12T05:21:11;52.87;;;24.63;;
19754;SDS011;10036;47.812;9.274;2023-02-12T05:23:40;52.17;;;26.73;;
19754;SDS011;10036;47.812;9.274;2023-02-12T05:26:09;57.30;;;28.17;;
19754;SDS011;10036;47.812;9.274;2023-02-12T05:28:38;55.33;;;29.57;;
19754;SDS011;10036;47.812;9.274;2023-02-12T05:31:05;53.90;;;28.97;;
19754;SDS011;10036;47.812;9.274;2023-02-12T05:33:35;57.47;;;27.27;;
19754;SDS011;10036;47.812;9.274;2023-02-12T05:36:03;60.83;;;30.37;;
19754;SDS011;10036;47.812;9.274;2023-02-12T05:38:30;63.47;;;29.47;;
19754;SDS011;10036;47.812;9.274;2023-02-12T05:41:01;57.70;;;28.07;;
19754;SDS011;10036;47.812;9.274;2023-02-12T05:43:28;56.20;;;28.50;;
19754;SDS011;10036;47.812;9.274;2023-02-12T05:45:57;57.83;;;26.13;;
19754;SDS011;10036;47.812;9.274;2023-02-12T05:48:24;52.83;;;26.63;;
19754;SDS011;10036;47.812;9.274;2023-02-12T05:50:51;54.80;;;26.67;;
19754;SDS011;10036;47.812;9.274;2023-02-12T05:53:18;55.80;;;27.10;;
19754;SDS011;10036;47.812;9.274;2023-02-12T05:55:45;55.07;;;26.90;;
19754;SDS011;10036;47.812;9.274;2023-02-12T05:58:13;50.33;;;26.03;;
19754;SDS011;10036;47.812;9.274;2023-02-12T06:00:40;55.40;;;26.07;;
19754;SDS011;10036;47.812;9.274;2023-02-12T06:03:07;51.63;;;26.60;;
19754;SDS011;10036;47.812;9.274;2023-02-12T06:05:34;54.17;;;26.23;;
19754;SDS011;10036;47.812;9.274;2023-02-12T06:08:00;55.77;;;25.93;;
19754;SDS011;10036;47.812;9.274;2023-02-12T06:10:27;54.33;;;25.73;;
19754;SDS011;10036;47.812;9.274;2023-02-12T06:12:54;53.03;;;25.90;;
19754;SDS011;10036;47.812;9.274;2023-02-12T06:15:22;54.00;;;27.20;;
19754;SDS011;10036;47.812;9.274;2023-02-12T06:17:49;50.43;;;26.30;;
19754;SDS011;10036;47.812;9.274;2023-02-12T06:20:16;52.40;;;26.47;;
19754;SDS011;10036;47.812;9.274;2023-02-12T06:22:43;53.67;;;24.93;;
19754;SDS011;10036;47.812;9.274;2023-02-12T06:25:10;49.53;;;25.57;;
19754;SDS011;10036;47.812;9.274;2023-02-12T06:27:36;50.97;;;25.47;;
19754;SDS011;10036;47.812;9.274;2023-02-12T06:30:04;50.97;;;25.23;;
19754;SDS011;10036;47.812;9.274;2023-02-12T06:32:33;47.30;;;25.23;;
19754;SDS011;10036;47.812;9.274;2023-02-12T06:34:59;48.77;;;24.73;;
19754;SDS011;10036;47.812;9.274;2023-02-12T06:37:26;49.83;;;25.23;;
19754;SDS011;10036;47.812;9.274;2023-02-12T06:39:53;54.40;;;25.67;;
19754;SDS011;10036;47.812;9.274;2023-02-12T06:42:20;50.90;;;24.33;;
19754;SDS011;10036;47.812;9.274;2023-02-12T06:44:47;52.40;;;24.70;;
19754;SDS011;10036;47.812;9.274;2023-02-12T06:47:13;52.57;;;24.57;;
19754;SDS011;10036;47.812;9.274;2023-02-12T06:49:42;49.30;;;22.50;;
19754;SDS011;10036;47.812;9.274;2023-02-12T06:52:08;51.90;;;25.80;;
19754;SDS011;10036;47.812;9.274;2023-02-12T06:54:35;47.83;;;24.63;;
19754;SDS011;10036;47.812;9.274;2023-02-12T06:57:03;49.73;;;24.93;;
19754;SDS011;10036;47.812;9.274;2023-02-12T06:59:30;50.37;;;24.37;;
19754;SDS011;10036;47.812;9.274;2023-02-12T07:01:57;59.30;;;30.23;;
19754;SDS011;10036;47.812;9.274;2023-02-12T07:04:24;62.00;;;29.93;;
19754;SDS011;10036;47.812;9.274;2023-02-12T07:06:52;58.87;;;29.10;;
19754;SDS011;10036;47.812;9.274;2023-02-12T07:09:19;55.90;;;27.23;;
19754;SDS011;10036;47.812;9.274;2023-02-12T07:11:45;55.10;;;29.03;;
19754;SDS011;10036;47.812;9.274;2023-02-12T07:14:13;58.37;;;29.27;;
19754;SDS011;10036;47.812;9.274;2023-02-12T07:16:41;57.17;;;28.27;;
19754;SDS011;10036;47.812;9.274;2023-02-12T07:19:08;57.57;;;28.47;;
19754;SDS011;10036;47.812;9.274;2023-02-12T07:21:38;52.63;;;26.70;;
19754;SDS011;10036;47.812;9.274;2023-02-12T07:24:06;58.07;;;27.40;;
19754;SDS011;10036;47.812;9.274;2023-02-12T07:26:35;58.90;;;28.67;;
19754;SDS011;10036;47.812;9.274;2023-02-12T07:29:03;49.70;;;25.13;;
19754;SDS011;10036;47.812;9.274;2023-02-12T07:31:30;51.17;;;25.00;;
19754;SDS011;10036;47.812;9.274;2023-02-12T07:33:58;56.83;;;27.93;;
19754;SDS011;10036;47.812;9.274;2023-02-12T07:36:26;54.47;;;27.63;;
19754;SDS011;10036;47.812;9.274;2023-02-12T07:38:56;49.53;;;26.20;;
19754;SDS011;10036;47.812;9.274;2023-02-12T07:41:26;50.03;;;25.40;;
19754;SDS011;10036;47.812;9.274;2023-02-12T07:43:54;51.60;;;26.17;;
19754;SDS011;10036;47.812;9.274;2023-02-12T07:46:22;47.15;;;25.17;;
19754;SDS011;10036;47.812;9.274;2023-02-12T07:48:54;47.40;;;24.90;;
19754;SDS011;10036;47.812;9.274;2023-02-12T07:51:21;42.45;;;21.92;;
19754;SDS011;10036;47.812;9.274;2023-02-12T07:53:49;37.22;;;19.67;;
19754;SDS011;10036;47.812;9.274;2023-02-12T07:56:19;41.40;;;20.15;;
19754;SDS011;10036;47.812;9.274;2023-02-12T07:58:49;37.65;;;18.50;;
19754;SDS011;10036;47.812;9.274;2023-02-12T08:01:19;37.70;;;17.60;;
19754;SDS011;10036;47.812;9.274;2023-02-12T08:03:47;35.55;;;16.40;;
19754;SDS011;10036;47.812;9.274;2023-02-12T08:06:15;36.33;;;17.55;;
19754;SDS011;10036;47.812;9.274;2023-02-12T08:08:43;36.03;;;17.77;;
19754;SDS011;10036;47.812;9.274;2023-02-12T08:11:10;32.63;;;16.65;;
19754;SDS011;10036;47.812;9.274;2023-02-12T08:13:38;34.10;;;16.17;;
19754;SDS011;10036;47.812;9.274;2023-02-12T08:16:08;27.45;;;15.15;;
19754;SDS011;10036;47.812;9.274;2023-02-12T08:18:36;29.10;;;14.65;;
19754;SDS011;10036;47.812;9.274;2023-02-12T08:21:03;29.60;;;14.27;;
19754;SDS011;10036;47.812;9.274;2023-02-12T08:23:31;26.17;;;13.68;;
19754;SDS011;10036;47.812;9.274;2023-02-12T08:26:08;26.80;;;13.48;;
19754;SDS011;10036;47.812;9.274;2023-02-12T08:28:38;25.50;;;12.93;;
19754;SDS011;10036;47.812;9.274;2023-02-12T08:31:08;20.85;;;11.55;;
19754;SDS011;10036;47.812;9.274;2023-02-12T08:33:36;21.83;;;12.45;;
19754;SDS011;10036;47.812;9.274;2023-02-12T08:36:04;21.83;;;12.70;;
19754;SDS011;10036;47.812;9.274;2023-02-12T08:38:33;22.10;;;13.02;;
19754;SDS011;10036;47.812;9.274;2023-02-12T08:41:01;21.52;;;11.90;;
19754;SDS011;10036;47.812;9.274;2023-02-12T08:43:29;21.20;;;11.20;;
19754;SDS011;10036;47.812;9.274;2023-02-12T08:46:00;20.70;;;11.55;;
19754;SDS011;10036;47.812;9.274;2023-02-12T08:48:29;22.65;;;11.45;;
19754;SDS011;10036;47.812;9.274;2023-02-12T08:51:01;24.83;;;11.68;;
19754;SDS011;10036;47.812;9.274;2023-02-12T08:53:32;19.90;;;11.23;;
19754;SDS011;10036;47.812;9.274;2023-02-12T08:56:00;21.48;;;12.30;;
19754;SDS011;10036;47.812;9.274;2023-02-12T08:58:27;21.65;;;11.77;;
19754;SDS011;10036;47.812;9.274;2023-02-12T09:00:54;22.13;;;12.85;;
19754;SDS011;10036;47.812;9.274;2023-02-12T09:03:21;24.33;;;12.55;;
19754;SDS011;10036;47.812;9.274;2023-02-12T09:05:49;21.13;;;12.65;;
19754;SDS011;10036;47.812;9.274;2023-02-12T09:08:16;21.92;;;12.05;;
19754;SDS011;10036;47.812;9.274;2023-02-12T09:10:43;24.52;;;12.88;;
19754;SDS011;10036;47.812;9.274;2023-02-12T09:13:11;22.67;;;12.65;;
19754;SDS011;10036;47.812;9.274;2023-02-12T09:15:38;19.45;;;11.73;;
19754;SDS011;10036;47.812;9.274;2023-02-12T09:18:06;23.05;;;12.45;;
19754;SDS011;10036;47.812;9.274;2023-02-12T09:20:36;20.30;;;12.25;;
19754;SDS011;10036;47.812;9.274;2023-02-12T09:23:05;21.17;;;12.77;;
19754;SDS011;10036;47.812;9.274;2023-02-12T09:25:32;22.25;;;12.65;;
19754;SDS011;10036;47.812;9.274;2023-02-12T09:27:59;24.63;;;13.77;;
19754;SDS011;10036;47.812;9.274;2023-02-12T09:30:26;23.42;;;12.85;;
19754;SDS011;10036;47.812;9.274;2023-02-12T09:32:53;21.00;;;12.38;;
19754;SDS011;10036;47.812;9.274;2023-02-12T09:35:20;22.73;;;12.90;;
19754;SDS011;10036;47.812;9.274;2023-02-12T09:37:47;22.23;;;12.85;;
19754;SDS011;10036;47.812;9.274;2023-02-12T09:43:04;22.02;;;12.95;;
19754;SDS011;10036;47.812;9.274;2023-02-12T09:45:37;22.33;;;13.13;;
19754;SDS011;10036;47.812;9.274;2023-02-12T09:48:11;20.83;;;12.55;;
19754;SDS011;10036;47.812;9.274;2023-02-12T09:50:56;21.60;;;12.75;;
19754;SDS011;10036;47.812;9.274;2023-02-12T09:53:26;21.23;;;12.20;;
19754;SDS011;10036;47.812;9.274;2023-02-12T09:55:57;21.00;;;13.30;;
19754;SDS011;10036;47.812;9.274;2023-02-12T09:58:28;20.52;;;12.60;;
19754;SDS011;10036;47.812;9.274;2023-02-12T10:00:58;20.50;;;11.93;;
19754;SDS011;10036;47.812;9.274;2023-02-12T10:03:26;21.90;;;12.70;;
19754;SDS011;10036;47.812;9.274;2023-02-12T10:05:57;21.90;;;12.88;;
19754;SDS011;10036;47.812;9.274;2023-02-12T10:08:40;20.35;;;12.82;;
19754;SDS011;10036;47.812;9.274;2023-02-12T10:11:21;21.10;;;11.70;;
19754;SDS011;10036;47.812;9.274;2023-02-12T10:14:01;19.17;;;10.95;;
19754;SDS011;10036;47.812;9.274;2023-02-12T10:16:40;18.95;;;11.45;;
19754;SDS011;10036;47.812;9.274;2023-02-12T10:19:18;21.23;;;11.55;;
19754;SDS011;10036;47.812;9.274;2023-02-12T10:21:56;20.88;;;11.27;;
19754;SDS011;10036;47.812;9.274;2023-02-12T10:27:24;19.05;;;11.48;;
19754;SDS011;10036;47.812;9.274;2023-02-12T10:30:03;18.20;;;10.95;;
19754;SDS011;10036;47.812;9.274;2023-02-12T10:32:42;16.52;;;10.82;;
19754;SDS011;10036;47.812;9.274;2023-02-12T10:35:11;20.75;;;11.98;;
19754;SDS011;10036;47.812;9.274;2023-02-12T10:37:39;19.42;;;11.60;;
19754;SDS011;10036;47.812;9.274;2023-02-12T10:40:13;17.85;;;11.27;;
19754;SDS011;10036;47.812;9.274;2023-02-12T10:42:45;17.23;;;11.05;;
19754;SDS011;10036;47.812;9.274;2023-02-12T10:45:15;16.88;;;10.55;;
19754;SDS011;10036;47.812;9.274;2023-02-12T10:47:43;19.65;;;11.38;;
19754;SDS011;10036;47.812;9.274;2023-02-12T10:50:16;17.73;;;10.85;;
19754;SDS011;10036;47.812;9.274;2023-02-12T10:52:52;18.42;;;11.35;;
19754;SDS011;10036;47.812;9.274;2023-02-12T10:55:25;20.05;;;12.07;;
19754;SDS011;10036;47.812;9.274;2023-02-12T10:57:55;20.10;;;11.45;;
19754;SDS011;10036;47.812;9.274;2023-02-12T11:00:24;18.80;;;11.35;;
19754;SDS011;10036;47.812;9.274;2023-02-12T11:03:01;17.90;;;10.98;;
19754;SDS011;10036;47.812;9.274;2023-02-12T11:05:32;17.10;;;11.10;;
19754;SDS011;10036;47.812;9.274;2023-02-12T11:08:00;18.17;;;10.45;;
19754;SDS011;10036;47.812;9.274;2023-02-12T11:10:28;14.35;;;9.77;;
19754;SDS011;10036;47.812;9.274;2023-02-12T11:12:58;16.52;;;10.50;;
19754;SDS011;10036;47.812;9.274;2023-02-12T11:15:27;13.75;;;9.35;;
19754;SDS011;10036;47.812;9.274;2023-02-12T11:18:00;14.52;;;9.38;;
19754;SDS011;10036;47.812;9.274;2023-02-12T11:20:29;14.77;;;9.55;;
19754;SDS011;10036;47.812;9.274;2023-02-12T11:23:00;11.65;;;8.23;;
19754;SDS011;10036;47.812;9.274;2023-02-12T11:25:30;14.95;;;8.30;;
19754;SDS011;10036;47.812;9.274;2023-02-12T11:28:02;11.52;;;8.20;;
19754;SDS011;10036;47.812;9.274;2023-02-12T11:30:40;10.98;;;7.57;;
19754;SDS011;10036;47.812;9.274;2023-02-12T11:33:16;11.20;;;7.78;;
19754;SDS011;10036;47.812;9.274;2023-02-12T11:35:48;11.02;;;7.60;;
19754;SDS011;10036;47.812;9.274;2023-02-12T11:38:20;11.18;;;6.97;;
19754;SDS011;10036;47.812;9.274;2023-02-12T11:40:54;12.32;;;7.63;;
19754;SDS011;10036;47.812;9.274;2023-02-12T11:43:25;14.45;;;7.80;;
19754;SDS011;10036;47.812;9.274;2023-02-12T11:45:55;11.13;;;7.75;;
19754;SDS011;10036;47.812;9.274;2023-02-12T11:48:23;10.52;;;7.30;;
19754;SDS011;10036;47.812;9.274;2023-02-12T11:50:53;11.55;;;7.80;;
19754;SDS011;10036;47.812;9.274;2023-02-12T11:53:23;10.60;;;7.35;;
19754;SDS011;10036;47.812;9.274;2023-02-12T11:55:54;10.35;;;7.10;;
19754;SDS011;10036;47.812;9.274;2023-02-12T11:58:25;9.43;;;6.90;;
19754;SDS011;10036;47.812;9.274;2023-02-12T12:00:56;8.57;;;6.57;;
19754;SDS011;10036;47.812;9.274;2023-02-12T12:03:28;8.32;;;6.55;;
19754;SDS011;10036;47.812;9.274;2023-02-12T12:06:01;12.13;;;7.10;;
19754;SDS011;10036;47.812;9.274;2023-02-12T12:08:34;9.55;;;6.53;;
19754;SDS011;10036;47.812;9.274;2023-02-12T12:11:08;10.15;;;6.88;;
19754;SDS011;10036;47.812;9.274;2023-02-12T12:13:42;13.00;;;7.22;;
19754;SDS011;10036;47.812;9.274;2023-02-12T12:16:13;8.90;;;6.47;;
19754;SDS011;10036;47.812;9.274;2023-02-12T12:19:03;10.32;;;6.80;;
19754;SDS011;10036;47.812;9.274;2023-02-12T12:21:54;8.73;;;6.53;;
19754;SDS011;10036;47.812;9.274;2023-02-12T12:24:28;8.40;;;6.10;;
19754;SDS011;10036;47.812;9.274;2023-02-12T12:27:05;10.98;;;6.63;;
19754;SDS011;10036;47.812;9.274;2023-02-12T12:30:01;8.82;;;6.13;;
19754;SDS011;10036;47.812;9.274;2023-02-12T12:32:31;8.40;;;5.88;;
19754;SDS011;10036;47.812;9.274;2023-02-12T12:35:01;8.52;;;6.20;;
19754;SDS011;10036;47.812;9.274;2023-02-12T12:37:30;8.65;;;6.15;;
19754;SDS011;10036;47.812;9.274;2023-02-12T12:40:08;7.85;;;6.05;;
19754;SDS011;10036;47.812;9.274;2023-02-12T12:48:52;8.02;;;6.00;;
19754;SDS011;10036;47.812;9.274;2023-02-12T12:51:44;11.25;;;6.38;;
19754;SDS011;10036;47.812;9.274;2023-02-12T12:54:28;8.18;;;6.30;;
19754;SDS011;10036;47.812;9.274;2023-02-12T12:57:04;10.45;;;6.40;;
19754;SDS011;10036;47.812;9.274;2023-02-12T13:08:58;9.68;;;7.10;;
19754;SDS011;10036;47.812;9.274;2023-02-12T13:11:48;9.43;;;6.45;;
19754;SDS011;10036;47.812;9.274;2023-02-12T13:14:26;8.73;;;6.72;;
19754;SDS011;10036;47.812;9.274;2023-02-12T13:17:03;8.75;;;6.75;;
19754;SDS011;10036;47.812;9.274;2023-02-12T13:19:41;11.48;;;6.95;;
19754;SDS011;10036;47.812;9.274;2023-02-12T13:22:15;10.15;;;6.70;;
19754;SDS011;10036;47.812;9.274;2023-02-12T13:24:49;9.18;;;6.50;;
19754;SDS011;10036;47.812;9.274;2023-02-12T13:27:21;8.35;;;6.38;;
19754;SDS011;10036;47.812;9.274;2023-02-12T13:29:51;8.63;;;6.43;;
19754;SDS011;10036;47.812;9.274;2023-02-12T13:32:24;9.98;;;6.50;;
19754;SDS011;10036;47.812;9.274;2023-02-12T13:34:55;9.05;;;6.47;;
19754;SDS011;10036;47.812;9.274;2023-02-12T13:37:24;7.28;;;5.72;;
19754;SDS011;10036;47.812;9.274;2023-02-12T13:40:02;7.85;;;5.82;;
19754;SDS011;10036;47.812;9.274;2023-02-12T13:42:37;9.85;;;6.35;;
19754;SDS011;10036;47.812;9.274;2023-02-12T13:45:16;8.30;;;6.00;;
19754;SDS011;10036;47.812;9.274;2023-02-12T13:47:50;8.27;;;5.80;;
19754;SDS011;10036;47.812;9.274;2023-02-12T13:50:30;8.98;;;5.68;;
19754;SDS011;10036;47.812;9.274;2023-02-12T13:53:06;9.23;;;5.57;;
19754;SDS011;10036;47.812;9.274;2023-02-12T13:55:52;8.95;;;6.15;;
19754;SDS011;10036;47.812;9.274;2023-02-12T13:58:39;7.28;;;5.65;;
19754;SDS011;10036;47.812;9.274;2023-02-12T14:04:21;8.02;;;5.40;;
19754;SDS011;10036;47.812;9.274;2023-02-12T14:06:52;9.23;;;5.80;;
19754;SDS011;10036;47.812;9.274;2023-02-12T14:09:23;9.18;;;6.45;;
19754;SDS011;10036;47.812;9.274;2023-02-12T14:11:58;9.45;;;5.93;;
19754;SDS011;10036;47.812;9.274;2023-02-12T14:14:27;8.18;;;5.57;;
19754;SDS011;10036;47.812;9.274;2023-02-12T14:16:57;8.57;;;6.10;;
19754;SDS011;10036;47.812;9.274;2023-02-12T14:20:06;7.45;;;5.35;;
19754;SDS011;10036;47.812;9.274;2023-02-12T14:25:54;7.20;;;5.93;;
19754;SDS011;10036;47.812;9.274;2023-02-12T14:28:30;7.70;;;5.78;;
19754;SDS011;10036;47.812;9.274;2023-02-12T14:37:10;8.70;;;5.93;;
19754;SDS011;10036;47.812;9.274;2023-02-12T14:39:41;9.68;;;5.88;;
19754;SDS011;10036;47.812;9.274;2023-02-12T14:45:25;8.27;;;5.95;;
19754;SDS011;10036;47.812;9.274;2023-02-12T14:47:53;9.50;;;6.43;;
19754;SDS011;10036;47.812;9.274;2023-02-12T14:50:40;9.15;;;6.18;;
19754;SDS011;10036;47.812;9.274;2023-02-12T14:56:02;8.00;;;6.13;;
19754;SDS011;10036;47.812;9.274;2023-02-12T14:58:33;12.00;;;6.55;;
19754;SDS011;10036;47.812;9.274;2023-02-12T15:01:02;14.95;;;9.32;;
19754;SDS011;10036;47.812;9.274;2023-02-12T15:03:32;10.13;;;6.95;;
19754;SDS011;10036;47.812;9.274;2023-02-12T15:06:08;10.45;;;7.15;;
19754;SDS011;10036;47.812;9.274;2023-02-12T15:08:42;10.10;;;7.35;;
19754;SDS011;10036;47.812;9.274;2023-02-12T15:11:18;9.82;;;6.78;;
19754;SDS011;10036;47.812;9.274;2023-02-12T15:13:52;9.75;;;6.50;;
19754;SDS011;10036;47.812;9.274;2023-02-12T15:16:33;11.30;;;7.03;;
19754;SDS011;10036;47.812;9.274;2023-02-12T15:19:09;11.38;;;7.03;;
19754;SDS011;10036;47.812;9.274;2023-02-12T15:21:43;12.70;;;7.40;;
19754;SDS011;10036;47.812;9.274;2023-02-12T15:24:11;10.75;;;7.15;;
19754;SDS011;10036;47.812;9.274;2023-02-12T15:26:40;10.65;;;7.63;;
19754;SDS011;10036;47.812;9.274;2023-02-12T15:29:15;10.75;;;6.68;;
19754;SDS011;10036;47.812;9.274;2023-02-12T15:31:48;10.32;;;7.03;;